sensor_id;sensor_type;location;lat;lon;timestamp;temperature;humidity
41557;DHT22;27720;51.992;5.890;2024-03-06T00:01:37;10.00;99.90
41557;DHT22;27720;51.992;5.890;2024-03-06T00:04:03;10.00;99.90
41557;DHT22;27720;51.992;5.890;2024-03-06T00:06:29;10.10;99.90
41557;DHT22;27720;51.992;5.890;2024-03-06T00:08:56;10.00;99.90
41557;DHT22;27720;51.992;5.890;2024-03-06T00:11:22;10.00;99.90
41557;DHT22;27720;51.992;5.890;2024-03-06T00:13:47;10.00;99.90
41557;DHT22;27720;51.992;5.890;2024-03-06T00:16:13;10.00;99.90
41557;DHT22;27720;51.992;5.890;2024-03-06T00:18:39;10.00;99.90
41557;DHT22;27720;51.992;5.890;2024-03-06T00:21:06;10.00;99.90
41557;DHT22;27720;51.992;5.890;2024-03-06T00:23:32;10.00;99.90
41557;DHT22;27720;51.992;5.890;2024-03-06T00:25:58;10.00;99.90
41557;DHT22;27720;51.992;5.890;2024-03-06T00:28:23;10.00;99.90
41557;DHT22;27720;51.992;5.890;2024-03-06T00:30:49;10.00;99.90
41557;DHT22;27720;51.992;5.890;2024-03-06T00:33:15;9.90;99.90
41557;DHT22;27720;51.992;5.890;2024-03-06T00:35:41;10.00;99.90
41557;DHT22;27720;51.992;5.890;2024-03-06T00:38:06;10.00;99.90
41557;DHT22;27720;51.992;5.890;2024-03-06T00:40:32;9.90;99.90
41557;DHT22;27720;51.992;5.890;2024-03-06T00:42:58;10.00;99.90
41557;DHT22;27720;51.992;5.890;2024-03-06T00:45:24;9.90;99.90
41557;DHT22;27720;51.992;5.890;2024-03-06T00:47:50;9.90;99.90
41557;DHT22;27720;51.992;5.890;2024-03-06T00:50:16;9.90;99.90
41557;DHT22;27720;51.992;5.890;2024-03-06T00:52:45;9.80;99.90
41557;DHT22;27720;51.992;5.890;2024-03-06T00:55:11;9.90;99.90
41557;DHT22;27720;51.992;5.890;2024-03-06T00:57:36;9.80;99.90
41557;DHT22;27720;51.992;5.890;2024-03-06T01:00:03;9.80;99.90
41557;DHT22;27720;51.992;5.890;2024-03-06T01:02:39;9.80;99.90
41557;DHT22;27720;51.992;5.890;2024-03-06T01:05:05;9.80;99.90
41557;DHT22;27720;51.992;5.890;2024-03-06T01:07:32;9.70;99.90
41557;DHT22;27720;51.992;5.890;2024-03-06T01:09:58;9.70;99.90
41557;DHT22;27720;51.992;5.890;2024-03-06T01:12:24;9.70;99.90
41557;DHT22;27720;51.992;5.890;2024-03-06T01:14:50;9.60;99.90
41557;DHT22;27720;51.992;5.890;2024-03-06T01:17:16;9.60;99.90
41557;DHT22;27720;51.992;5.890;2024-03-06T01:19:42;9.60;99.90
41557;DHT22;27720;51.992;5.890;2024-03-06T01:22:09;9.60;99.90
41557;DHT22;27720;51.992;5.890;2024-03-06T01:24:35;9.60;99.90
41557;DHT22;27720;51.992;5.890;2024-03-06T01:27:01;9.60;99.90
41557;DHT22;27720;51.992;5.890;2024-03-06T01:29:28;9.50;99.90
41557;DHT22;27720;51.992;5.890;2024-03-06T01:31:54;9.50;99.90
41557;DHT22;27720;51.992;5.890;2024-03-06T01:34:20;9.50;99.90
41557;DHT22;27720;51.992;5.890;2024-03-06T01:36:46;9.50;99.90
41557;DHT22;27720;51.992;5.890;2024-03-06T01:39:12;9.50;99.90
41557;DHT22;27720;51.992;5.890;2024-03-06T01:41:44;9.40;99.90
41557;DHT22;27720;51.992;5.890;2024-03-06T01:44:13;9.40;99.90
41557;DHT22;27720;51.992;5.890;2024-03-06T01:46:39;9.40;99.90
41557;DHT22;27720;51.992;5.890;2024-03-06T01:49:05;9.40;99.90
41557;DHT22;27720;51.992;5.890;2024-03-06T01:51:32;9.30;99.90
41557;DHT22;27720;51.992;5.890;2024-03-06T01:53:58;9.30;99.90
41557;DHT22;27720;51.992;5.890;2024-03-06T01:56:26;9.30;99.90
41557;DHT22;27720;51.992;5.890;2024-03-06T01:58:53;9.30;99.90
41557;DHT22;27720;51.992;5.890;2024-03-06T02:01:21;9.20;99.90
41557;DHT22;27720;51.992;5.890;2024-03-06T02:03:47;9.20;99.90
41557;DHT22;27720;51.992;5.890;2024-03-06T02:06:14;9.20;99.90
41557;DHT22;27720;51.992;5.890;2024-03-06T02:08:41;9.10;99.90
41557;DHT22;27720;51.992;5.890;2024-03-06T02:11:06;9.10;99.90
41557;DHT22;27720;51.992;5.890;2024-03-06T02:13:33;9.10;99.90
41557;DHT22;27720;51.992;5.890;2024-03-06T02:15:59;9.10;99.90
41557;DHT22;27720;51.992;5.890;2024-03-06T02:18:25;9.10;99.90
41557;DHT22;27720;51.992;5.890;2024-03-06T02:20:51;9.00;99.90
41557;DHT22;27720;51.992;5.890;2024-03-06T02:23:16;9.00;99.90
41557;DHT22;27720;51.992;5.890;2024-03-06T02:25:44;9.00;99.90
41557;DHT22;27720;51.992;5.890;2024-03-06T02:28:12;9.00;99.90
41557;DHT22;27720;51.992;5.890;2024-03-06T02:30:38;9.00;99.90
41557;DHT22;27720;51.992;5.890;2024-03-06T02:33:04;8.90;99.90
41557;DHT22;27720;51.992;5.890;2024-03-06T02:35:32;8.90;99.90
41557;DHT22;27720;51.992;5.890;2024-03-06T02:38:01;8.90;99.90
41557;DHT22;27720;51.992;5.890;2024-03-06T02:40:27;8.90;99.90
41557;DHT22;27720;51.992;5.890;2024-03-06T02:42:52;8.90;99.90
41557;DHT22;27720;51.992;5.890;2024-03-06T02:45:18;8.80;99.90
41557;DHT22;27720;51.992;5.890;2024-03-06T02:47:44;8.80;99.90
41557;DHT22;27720;51.992;5.890;2024-03-06T02:50:10;8.80;99.90
41557;DHT22;27720;51.992;5.890;2024-03-06T02:52:36;8.70;99.90
41557;DHT22;27720;51.992;5.890;2024-03-06T02:55:02;8.80;99.90
41557;DHT22;27720;51.992;5.890;2024-03-06T02:57:28;8.70;99.90
41557;DHT22;27720;51.992;5.890;2024-03-06T02:59:56;8.70;99.90
41557;DHT22;27720;51.992;5.890;2024-03-06T03:02:21;8.70;99.90
41557;DHT22;27720;51.992;5.890;2024-03-06T03:04:47;8.70;99.90
41557;DHT22;27720;51.992;5.890;2024-03-06T03:07:13;8.60;99.90
41557;DHT22;27720;51.992;5.890;2024-03-06T03:09:39;8.60;99.90
41557;DHT22;27720;51.992;5.890;2024-03-06T03:12:05;8.60;99.90
41557;DHT22;27720;51.992;5.890;2024-03-06T03:14:31;8.60;99.90
41557;DHT22;27720;51.992;5.890;2024-03-06T03:16:57;8.60;99.90
41557;DHT22;27720;51.992;5.890;2024-03-06T03:19:22;8.50;99.90
41557;DHT22;27720;51.992;5.890;2024-03-06T03:21:48;8.50;99.90
41557;DHT22;27720;51.992;5.890;2024-03-06T03:24:14;8.50;99.90
41557;DHT22;27720;51.992;5.890;2024-03-06T03:26:39;8.50;99.90
41557;DHT22;27720;51.992;5.890;2024-03-06T03:29:07;8.50;99.90
41557;DHT22;27720;51.992;5.890;2024-03-06T03:31:33;8.50;99.90
41557;DHT22;27720;51.992;5.890;2024-03-06T03:33:59;8.40;99.90
41557;DHT22;27720;51.992;5.890;2024-03-06T03:36:24;8.40;99.90
41557;DHT22;27720;51.992;5.890;2024-03-06T03:38:50;8.40;99.90
41557;DHT22;27720;51.992;5.890;2024-03-06T03:41:16;8.40;99.90
41557;DHT22;27720;51.992;5.890;2024-03-06T03:43:46;8.40;99.90
41557;DHT22;27720;51.992;5.890;2024-03-06T03:46:12;8.30;99.90
41557;DHT22;27720;51.992;5.890;2024-03-06T03:48:39;8.30;99.90
41557;DHT22;27720;51.992;5.890;2024-03-06T03:51:05;8.30;99.90
41557;DHT22;27720;51.992;5.890;2024-03-06T03:53:33;8.30;99.90
41557;DHT22;27720;51.992;5.890;2024-03-06T03:55:59;8.20;99.90
41557;DHT22;27720;51.992;5.890;2024-03-06T03:58:25;8.20;99.90
41557;DHT22;27720;51.992;5.890;2024-03-06T04:00:51;8.20;99.90
41557;DHT22;27720;51.992;5.890;2024-03-06T04:03:21;8.20;99.90
41557;DHT22;27720;51.992;5.890;2024-03-06T04:05:50;8.20;99.90
41557;DHT22;27720;51.992;5.890;2024-03-06T04:08:15;8.20;99.90
41557;DHT22;27720;51.992;5.890;2024-03-06T04:10:42;8.10;99.90
41557;DHT22;27720;51.992;5.890;2024-03-06T04:13:12;8.10;99.90
41557;DHT22;27720;51.992;5.890;2024-03-06T04:15:38;8.10;99.90
41557;DHT22;27720;51.992;5.890;2024-03-06T04:18:04;8.10;99.90
41557;DHT22;27720;51.992;5.890;2024-03-06T04:20:29;8.10;99.90
41557;DHT22;27720;51.992;5.890;2024-03-06T04:22:55;8.00;99.90
41557;DHT22;27720;51.992;5.890;2024-03-06T04:25:21;8.00;99.90
41557;DHT22;27720;51.992;5.890;2024-03-06T04:27:49;8.00;99.90
41557;DHT22;27720;51.992;5.890;2024-03-06T04:30:14;8.00;99.90
41557;DHT22;27720;51.992;5.890;2024-03-06T04:32:40;8.00;99.90
41557;DHT22;27720;51.992;5.890;2024-03-06T04:35:06;8.00;99.90
41557;DHT22;27720;51.992;5.890;2024-03-06T04:37:32;8.00;99.90
41557;DHT22;27720;51.992;5.890;2024-03-06T04:39:58;7.90;99.90
41557;DHT22;27720;51.992;5.890;2024-03-06T04:42:24;7.90;99.90
41557;DHT22;27720;51.992;5.890;2024-03-06T04:44:50;7.90;99.90
41557;DHT22;27720;51.992;5.890;2024-03-06T04:47:15;7.90;99.90
41557;DHT22;27720;51.992;5.890;2024-03-06T04:49:41;7.90;99.90
41557;DHT22;27720;51.992;5.890;2024-03-06T04:52:08;7.90;99.90
41557;DHT22;27720;51.992;5.890;2024-03-06T04:54:34;7.80;99.90
41557;DHT22;27720;51.992;5.890;2024-03-06T04:57:00;7.90;99.90
41557;DHT22;27720;51.992;5.890;2024-03-06T04:59:26;7.80;99.90
41557;DHT22;27720;51.992;5.890;2024-03-06T05:01:52;7.80;99.90
41557;DHT22;27720;51.992;5.890;2024-03-06T05:04:18;7.80;99.90
41557;DHT22;27720;51.992;5.890;2024-03-06T05:06:43;7.80;99.90
41557;DHT22;27720;51.992;5.890;2024-03-06T05:09:09;7.80;99.90
41557;DHT22;27720;51.992;5.890;2024-03-06T05:11:40;7.80;99.90
41557;DHT22;27720;51.992;5.890;2024-03-06T05:14:05;7.80;99.90
41557;DHT22;27720;51.992;5.890;2024-03-06T05:16:31;7.80;99.90
41557;DHT22;27720;51.992;5.890;2024-03-06T05:18:57;7.80;99.90
41557;DHT22;27720;51.992;5.890;2024-03-06T05:21:22;7.80;99.90
41557;DHT22;27720;51.992;5.890;2024-03-06T05:23:48;7.80;99.90
41557;DHT22;27720;51.992;5.890;2024-03-06T05:26:15;7.70;99.90
41557;DHT22;27720;51.992;5.890;2024-03-06T05:28:41;7.70;99.90
41557;DHT22;27720;51.992;5.890;2024-03-06T05:31:17;7.80;99.90
41557;DHT22;27720;51.992;5.890;2024-03-06T05:33:47;7.70;99.90
41557;DHT22;27720;51.992;5.890;2024-03-06T05:36:14;7.80;99.90
41557;DHT22;27720;51.992;5.890;2024-03-06T05:38:40;7.70;99.90
41557;DHT22;27720;51.992;5.890;2024-03-06T05:41:06;7.70;99.90
41557;DHT22;27720;51.992;5.890;2024-03-06T05:43:32;7.70;99.90
41557;DHT22;27720;51.992;5.890;2024-03-06T05:45:58;7.70;99.90
41557;DHT22;27720;51.992;5.890;2024-03-06T05:48:23;7.70;99.90
41557;DHT22;27720;51.992;5.890;2024-03-06T05:50:49;7.70;99.90
41557;DHT22;27720;51.992;5.890;2024-03-06T05:53:15;7.60;99.90
41557;DHT22;27720;51.992;5.890;2024-03-06T05:55:41;7.70;99.90
41557;DHT22;27720;51.992;5.890;2024-03-06T05:58:06;7.60;99.90
41557;DHT22;27720;51.992;5.890;2024-03-06T06:00:32;7.60;99.90
41557;DHT22;27720;51.992;5.890;2024-03-06T06:02:58;7.60;99.90
41557;DHT22;27720;51.992;5.890;2024-03-06T06:05:24;7.60;99.90
41557;DHT22;27720;51.992;5.890;2024-03-06T06:07:53;7.60;99.90
41557;DHT22;27720;51.992;5.890;2024-03-06T06:10:19;7.60;99.90
41557;DHT22;27720;51.992;5.890;2024-03-06T06:12:45;7.50;99.90
41557;DHT22;27720;51.992;5.890;2024-03-06T06:15:11;7.50;99.90
41557;DHT22;27720;51.992;5.890;2024-03-06T06:17:36;7.50;99.90
41557;DHT22;27720;51.992;5.890;2024-03-06T06:20:06;7.50;99.90
41557;DHT22;27720;51.992;5.890;2024-03-06T06:22:36;7.50;99.90
41557;DHT22;27720;51.992;5.890;2024-03-06T06:25:02;7.50;99.90
41557;DHT22;27720;51.992;5.890;2024-03-06T06:27:29;7.50;99.90
41557;DHT22;27720;51.992;5.890;2024-03-06T06:29:54;7.50;99.90
41557;DHT22;27720;51.992;5.890;2024-03-06T06:32:21;7.50;99.90
41557;DHT22;27720;51.992;5.890;2024-03-06T06:34:46;7.50;99.90
41557;DHT22;27720;51.992;5.890;2024-03-06T06:37:12;7.50;99.90
41557;DHT22;27720;51.992;5.890;2024-03-06T06:39:38;7.50;99.90
41557;DHT22;27720;51.992;5.890;2024-03-06T06:42:04;7.50;99.90
41557;DHT22;27720;51.992;5.890;2024-03-06T06:44:29;7.40;99.90
41557;DHT22;27720;51.992;5.890;2024-03-06T06:46:55;7.40;99.90
41557;DHT22;27720;51.992;5.890;2024-03-06T06:49:21;7.40;99.90
41557;DHT22;27720;51.992;5.890;2024-03-06T06:51:47;7.40;99.90
41557;DHT22;27720;51.992;5.890;2024-03-06T06:54:15;7.40;99.90
41557;DHT22;27720;51.992;5.890;2024-03-06T06:56:41;7.50;99.90
41557;DHT22;27720;51.992;5.890;2024-03-06T06:59:06;7.40;99.90
41557;DHT22;27720;51.992;5.890;2024-03-06T07:01:32;7.50;99.90
41557;DHT22;27720;51.992;5.890;2024-03-06T07:03:58;7.50;99.90
41557;DHT22;27720;51.992;5.890;2024-03-06T07:06:25;7.50;99.90
41557;DHT22;27720;51.992;5.890;2024-03-06T07:08:50;7.50;99.90
41557;DHT22;27720;51.992;5.890;2024-03-06T07:11:17;7.50;99.90
41557;DHT22;27720;51.992;5.890;2024-03-06T07:13:44;7.50;99.90
41557;DHT22;27720;51.992;5.890;2024-03-06T07:16:09;7.50;99.90
41557;DHT22;27720;51.992;5.890;2024-03-06T07:18:35;7.50;99.90
41557;DHT22;27720;51.992;5.890;2024-03-06T07:21:01;7.50;99.90
41557;DHT22;27720;51.992;5.890;2024-03-06T07:23:27;7.50;99.90
41557;DHT22;27720;51.992;5.890;2024-03-06T07:25:53;7.50;99.90
41557;DHT22;27720;51.992;5.890;2024-03-06T07:28:18;7.50;99.90
41557;DHT22;27720;51.992;5.890;2024-03-06T07:30:44;7.50;99.90
41557;DHT22;27720;51.992;5.890;2024-03-06T07:33:10;7.50;99.90
41557;DHT22;27720;51.992;5.890;2024-03-06T07:35:36;7.50;99.90
41557;DHT22;27720;51.992;5.890;2024-03-06T07:38:02;7.50;99.90
41557;DHT22;27720;51.992;5.890;2024-03-06T07:40:35;7.50;99.90
41557;DHT22;27720;51.992;5.890;2024-03-06T07:43:01;7.50;99.90
41557;DHT22;27720;51.992;5.890;2024-03-06T07:45:26;7.60;99.90
41557;DHT22;27720;51.992;5.890;2024-03-06T07:47:53;7.60;99.90
41557;DHT22;27720;51.992;5.890;2024-03-06T07:50:19;7.70;99.90
41557;DHT22;27720;51.992;5.890;2024-03-06T07:52:45;7.70;99.90
41557;DHT22;27720;51.992;5.890;2024-03-06T07:55:11;7.70;99.90
41557;DHT22;27720;51.992;5.890;2024-03-06T07:57:40;7.80;99.90
41557;DHT22;27720;51.992;5.890;2024-03-06T08:00:07;7.80;99.90
41557;DHT22;27720;51.992;5.890;2024-03-06T08:02:51;7.70;99.90
41557;DHT22;27720;51.992;5.890;2024-03-06T08:05:18;7.80;99.90
41557;DHT22;27720;51.992;5.890;2024-03-06T08:07:45;7.80;99.90
41557;DHT22;27720;51.992;5.890;2024-03-06T08:10:12;7.80;99.90
41557;DHT22;27720;51.992;5.890;2024-03-06T08:12:42;7.80;99.90
41557;DHT22;27720;51.992;5.890;2024-03-06T08:15:13;7.80;99.90
41557;DHT22;27720;51.992;5.890;2024-03-06T08:17:39;7.80;99.90
41557;DHT22;27720;51.992;5.890;2024-03-06T08:20:10;7.90;99.90
41557;DHT22;27720;51.992;5.890;2024-03-06T08:22:43;7.90;99.90
41557;DHT22;27720;51.992;5.890;2024-03-06T08:25:10;7.90;99.90
41557;DHT22;27720;51.992;5.890;2024-03-06T08:27:41;7.90;99.90
41557;DHT22;27720;51.992;5.890;2024-03-06T08:30:08;8.00;99.90
41557;DHT22;27720;51.992;5.890;2024-03-06T08:32:35;7.90;99.90
41557;DHT22;27720;51.992;5.890;2024-03-06T08:35:02;8.00;99.90
41557;DHT22;27720;51.992;5.890;2024-03-06T08:37:40;8.00;99.90
41557;DHT22;27720;51.992;5.890;2024-03-06T08:40:07;8.00;99.90
41557;DHT22;27720;51.992;5.890;2024-03-06T08:42:33;8.10;99.90
41557;DHT22;27720;51.992;5.890;2024-03-06T08:44:59;8.10;99.90
41557;DHT22;27720;51.992;5.890;2024-03-06T08:47:24;8.10;99.90
41557;DHT22;27720;51.992;5.890;2024-03-06T08:49:50;8.20;99.90
41557;DHT22;27720;51.992;5.890;2024-03-06T08:52:16;8.20;99.90
41557;DHT22;27720;51.992;5.890;2024-03-06T08:54:41;8.20;99.90
41557;DHT22;27720;51.992;5.890;2024-03-06T08:57:08;8.30;99.90
41557;DHT22;27720;51.992;5.890;2024-03-06T08:59:34;8.30;99.90
41557;DHT22;27720;51.992;5.890;2024-03-06T09:02:15;8.30;99.90
41557;DHT22;27720;51.992;5.890;2024-03-06T09:04:42;8.20;99.90
41557;DHT22;27720;51.992;5.890;2024-03-06T09:07:08;8.20;99.90
41557;DHT22;27720;51.992;5.890;2024-03-06T09:09:35;8.20;99.90
41557;DHT22;27720;51.992;5.890;2024-03-06T09:12:02;8.20;99.90
41557;DHT22;27720;51.992;5.890;2024-03-06T09:14:30;8.20;99.90
41557;DHT22;27720;51.992;5.890;2024-03-06T09:16:55;8.20;99.90
41557;DHT22;27720;51.992;5.890;2024-03-06T09:19:21;8.30;99.90
41557;DHT22;27720;51.992;5.890;2024-03-06T09:21:48;8.40;99.90
41557;DHT22;27720;51.992;5.890;2024-03-06T09:24:14;8.50;99.90
41557;DHT22;27720;51.992;5.890;2024-03-06T09:26:39;8.50;99.90
41557;DHT22;27720;51.992;5.890;2024-03-06T09:29:05;8.60;99.90
41557;DHT22;27720;51.992;5.890;2024-03-06T09:31:31;8.70;99.90
41557;DHT22;27720;51.992;5.890;2024-03-06T09:33:56;8.80;99.90
41557;DHT22;27720;51.992;5.890;2024-03-06T09:36:23;8.80;99.90
41557;DHT22;27720;51.992;5.890;2024-03-06T09:38:54;8.80;99.90
41557;DHT22;27720;51.992;5.890;2024-03-06T09:41:25;8.90;99.90
41557;DHT22;27720;51.992;5.890;2024-03-06T09:43:51;8.80;99.90
41557;DHT22;27720;51.992;5.890;2024-03-06T09:46:18;8.80;99.90
41557;DHT22;27720;51.992;5.890;2024-03-06T09:48:47;8.90;99.90
41557;DHT22;27720;51.992;5.890;2024-03-06T09:51:13;9.00;99.90
41557;DHT22;27720;51.992;5.890;2024-03-06T09:53:42;9.00;99.90
41557;DHT22;27720;51.992;5.890;2024-03-06T09:56:12;9.10;99.90
41557;DHT22;27720;51.992;5.890;2024-03-06T09:58:38;9.20;99.90
41557;DHT22;27720;51.992;5.890;2024-03-06T10:01:05;9.30;99.90
41557;DHT22;27720;51.992;5.890;2024-03-06T10:03:33;9.30;99.90
41557;DHT22;27720;51.992;5.890;2024-03-06T10:06:00;9.40;99.90
41557;DHT22;27720;51.992;5.890;2024-03-06T10:08:25;9.40;99.90
41557;DHT22;27720;51.992;5.890;2024-03-06T10:10:52;9.40;99.90
41557;DHT22;27720;51.992;5.890;2024-03-06T10:13:18;9.40;99.90
41557;DHT22;27720;51.992;5.890;2024-03-06T10:16:04;9.50;99.90
41557;DHT22;27720;51.992;5.890;2024-03-06T10:18:34;9.50;99.90
41557;DHT22;27720;51.992;5.890;2024-03-06T10:21:00;9.50;99.90
41557;DHT22;27720;51.992;5.890;2024-03-06T10:23:31;9.60;99.90
41557;DHT22;27720;51.992;5.890;2024-03-06T10:25:57;9.60;99.90
41557;DHT22;27720;51.992;5.890;2024-03-06T10:28:23;9.60;99.90
41557;DHT22;27720;51.992;5.890;2024-03-06T10:30:50;9.70;99.90
41557;DHT22;27720;51.992;5.890;2024-03-06T10:33:18;9.70;99.90
41557;DHT22;27720;51.992;5.890;2024-03-06T10:35:47;9.70;99.90
41557;DHT22;27720;51.992;5.890;2024-03-06T10:38:14;9.80;99.90
41557;DHT22;27720;51.992;5.890;2024-03-06T10:40:42;9.80;99.90
41557;DHT22;27720;51.992;5.890;2024-03-06T10:43:08;9.80;99.90
41557;DHT22;27720;51.992;5.890;2024-03-06T10:45:51;9.90;99.90
41557;DHT22;27720;51.992;5.890;2024-03-06T10:48:19;9.90;99.90
41557;DHT22;27720;51.992;5.890;2024-03-06T10:50:49;10.00;99.90
41557;DHT22;27720;51.992;5.890;2024-03-06T10:53:16;10.00;99.90
41557;DHT22;27720;51.992;5.890;2024-03-06T10:55:45;10.10;99.90
41557;DHT22;27720;51.992;5.890;2024-03-06T10:58:12;10.10;99.90
41557;DHT22;27720;51.992;5.890;2024-03-06T11:00:45;10.10;99.90
41557;DHT22;27720;51.992;5.890;2024-03-06T11:03:15;10.20;99.90
41557;DHT22;27720;51.992;5.890;2024-03-06T11:05:42;10.30;99.90
41557;DHT22;27720;51.992;5.890;2024-03-06T11:08:10;10.40;99.90
41557;DHT22;27720;51.992;5.890;2024-03-06T11:10:41;10.60;99.90
41557;DHT22;27720;51.992;5.890;2024-03-06T11:13:25;10.60;99.90
41557;DHT22;27720;51.992;5.890;2024-03-06T11:15:57;10.70;99.90
41557;DHT22;27720;51.992;5.890;2024-03-06T11:24:58;11.00;99.90
41557;DHT22;27720;51.992;5.890;2024-03-06T11:26:59;11.00;99.90
41557;DHT22;27720;51.992;5.890;2024-03-06T11:29:28;11.00;99.90
41557;DHT22;27720;51.992;5.890;2024-03-06T11:34:28;11.20;99.90
41557;DHT22;27720;51.992;5.890;2024-03-06T11:36:59;11.20;99.90
41557;DHT22;27720;51.992;5.890;2024-03-06T11:39:28;11.30;99.90
41557;DHT22;27720;51.992;5.890;2024-03-06T11:41:55;11.40;99.90
41557;DHT22;27720;51.992;5.890;2024-03-06T11:44:22;11.50;99.90
41557;DHT22;27720;51.992;5.890;2024-03-06T11:49:25;11.80;99.90
41557;DHT22;27720;51.992;5.890;2024-03-06T11:51:51;11.80;99.90
41557;DHT22;27720;51.992;5.890;2024-03-06T11:54:17;11.90;99.90
41557;DHT22;27720;51.992;5.890;2024-03-06T11:56:49;11.90;99.90
41557;DHT22;27720;51.992;5.890;2024-03-06T11:59:30;11.90;99.90
41557;DHT22;27720;51.992;5.890;2024-03-06T12:01:59;12.00;99.90
41557;DHT22;27720;51.992;5.890;2024-03-06T12:04:29;12.20;99.90
41557;DHT22;27720;51.992;5.890;2024-03-06T12:06:58;12.30;99.90
41557;DHT22;27720;51.992;5.890;2024-03-06T12:09:26;12.50;99.90
41557;DHT22;27720;51.992;5.890;2024-03-06T12:11:52;12.70;99.90
41557;DHT22;27720;51.992;5.890;2024-03-06T12:14:21;12.90;99.90
41557;DHT22;27720;51.992;5.890;2024-03-06T12:16:57;12.90;99.90
41557;DHT22;27720;51.992;5.890;2024-03-06T12:19:31;12.90;99.90
41557;DHT22;27720;51.992;5.890;2024-03-06T12:22:01;12.90;99.90
41557;DHT22;27720;51.992;5.890;2024-03-06T12:24:29;12.90;99.90
41557;DHT22;27720;51.992;5.890;2024-03-06T12:27:02;12.90;99.90
41557;DHT22;27720;51.992;5.890;2024-03-06T12:29:29;12.90;99.90
41557;DHT22;27720;51.992;5.890;2024-03-06T12:31:59;13.10;99.90
41557;DHT22;27720;51.992;5.890;2024-03-06T12:34:25;13.10;99.90
41557;DHT22;27720;51.992;5.890;2024-03-06T12:36:51;13.20;99.90
41557;DHT22;27720;51.992;5.890;2024-03-06T12:39:17;13.20;99.90
41557;DHT22;27720;51.992;5.890;2024-03-06T12:41:52;13.20;99.90
41557;DHT22;27720;51.992;5.890;2024-03-06T12:44:19;13.40;99.90
41557;DHT22;27720;51.992;5.890;2024-03-06T12:46:45;13.40;99.90
41557;DHT22;27720;51.992;5.890;2024-03-06T12:49:11;13.60;99.90
41557;DHT22;27720;51.992;5.890;2024-03-06T12:51:36;13.70;99.90
41557;DHT22;27720;51.992;5.890;2024-03-06T12:54:02;13.80;99.90
41557;DHT22;27720;51.992;5.890;2024-03-06T12:56:29;13.90;99.90
41557;DHT22;27720;51.992;5.890;2024-03-06T12:58:54;14.00;99.90
41557;DHT22;27720;51.992;5.890;2024-03-06T13:01:20;14.10;99.90
41557;DHT22;27720;51.992;5.890;2024-03-06T13:03:46;14.20;99.90
41557;DHT22;27720;51.992;5.890;2024-03-06T13:06:12;14.30;99.90
41557;DHT22;27720;51.992;5.890;2024-03-06T13:08:37;14.40;99.90
41557;DHT22;27720;51.992;5.890;2024-03-06T13:11:03;14.60;99.90
41557;DHT22;27720;51.992;5.890;2024-03-06T13:13:29;14.70;99.90
41557;DHT22;27720;51.992;5.890;2024-03-06T13:15:58;14.70;99.90
41557;DHT22;27720;51.992;5.890;2024-03-06T13:18:24;14.80;99.90
41557;DHT22;27720;51.992;5.890;2024-03-06T13:20:51;14.90;99.90
41557;DHT22;27720;51.992;5.890;2024-03-06T13:23:17;15.00;99.90
41557;DHT22;27720;51.992;5.890;2024-03-06T13:25:43;15.00;99.90
41557;DHT22;27720;51.992;5.890;2024-03-06T13:28:09;15.10;99.90
41557;DHT22;27720;51.992;5.890;2024-03-06T13:30:35;15.10;99.90
41557;DHT22;27720;51.992;5.890;2024-03-06T13:33:00;15.10;99.90
41557;DHT22;27720;51.992;5.890;2024-03-06T13:35:26;15.20;99.90
41557;DHT22;27720;51.992;5.890;2024-03-06T13:37:52;15.30;99.90
41557;DHT22;27720;51.992;5.890;2024-03-06T13:40:19;15.40;99.90
41557;DHT22;27720;51.992;5.890;2024-03-06T13:42:45;15.60;99.90
41557;DHT22;27720;51.992;5.890;2024-03-06T13:45:11;15.60;99.90
41557;DHT22;27720;51.992;5.890;2024-03-06T13:47:38;15.70;99.90
41557;DHT22;27720;51.992;5.890;2024-03-06T13:50:12;15.80;99.90
41557;DHT22;27720;51.992;5.890;2024-03-06T13:52:38;15.80;99.90
41557;DHT22;27720;51.992;5.890;2024-03-06T13:55:04;15.80;99.90
41557;DHT22;27720;51.992;5.890;2024-03-06T13:57:36;15.80;99.90
41557;DHT22;27720;51.992;5.890;2024-03-06T14:00:03;15.90;99.90
41557;DHT22;27720;51.992;5.890;2024-03-06T14:02:39;16.00;99.90
41557;DHT22;27720;51.992;5.890;2024-03-06T14:05:06;16.10;99.90
41557;DHT22;27720;51.992;5.890;2024-03-06T14:07:32;16.10;99.90
41557;DHT22;27720;51.992;5.890;2024-03-06T14:09:59;16.10;99.90
41557;DHT22;27720;51.992;5.890;2024-03-06T14:12:25;16.10;99.90
41557;DHT22;27720;51.992;5.890;2024-03-06T14:14:50;16.10;99.90
41557;DHT22;27720;51.992;5.890;2024-03-06T14:17:16;16.10;99.90
41557;DHT22;27720;51.992;5.890;2024-03-06T14:19:42;16.10;99.90
41557;DHT22;27720;51.992;5.890;2024-03-06T14:22:11;16.20;99.90
41557;DHT22;27720;51.992;5.890;2024-03-06T14:24:41;16.20;99.90
41557;DHT22;27720;51.992;5.890;2024-03-06T14:27:06;16.20;99.90
41557;DHT22;27720;51.992;5.890;2024-03-06T14:29:32;16.10;99.90
41557;DHT22;27720;51.992;5.890;2024-03-06T14:32:01;16.10;99.90
41557;DHT22;27720;51.992;5.890;2024-03-06T14:34:30;16.10;99.90
41557;DHT22;27720;51.992;5.890;2024-03-06T14:36:56;16.00;99.90
41557;DHT22;27720;51.992;5.890;2024-03-06T14:39:22;15.80;99.90
41557;DHT22;27720;51.992;5.890;2024-03-06T14:41:49;15.80;99.90
41557;DHT22;27720;51.992;5.890;2024-03-06T14:44:14;15.70;99.90
41557;DHT22;27720;51.992;5.890;2024-03-06T14:46:41;15.70;99.90
41557;DHT22;27720;51.992;5.890;2024-03-06T14:49:07;15.60;99.90
41557;DHT22;27720;51.992;5.890;2024-03-06T14:51:33;15.50;99.90
41557;DHT22;27720;51.992;5.890;2024-03-06T14:53:59;15.40;99.90
41557;DHT22;27720;51.992;5.890;2024-03-06T14:56:25;15.40;99.90
41557;DHT22;27720;51.992;5.890;2024-03-06T14:58:51;15.30;99.90
41557;DHT22;27720;51.992;5.890;2024-03-06T15:01:17;15.20;99.90
41557;DHT22;27720;51.992;5.890;2024-03-06T15:03:43;15.20;99.90
41557;DHT22;27720;51.992;5.890;2024-03-06T15:06:11;15.10;99.90
41557;DHT22;27720;51.992;5.890;2024-03-06T15:08:37;15.10;99.90
41557;DHT22;27720;51.992;5.890;2024-03-06T15:11:03;15.00;99.90
41557;DHT22;27720;51.992;5.890;2024-03-06T15:13:29;15.00;99.90
41557;DHT22;27720;51.992;5.890;2024-03-06T15:15:54;15.00;99.90
41557;DHT22;27720;51.992;5.890;2024-03-06T15:18:20;14.90;99.90
41557;DHT22;27720;51.992;5.890;2024-03-06T15:20:46;14.90;99.90
41557;DHT22;27720;51.992;5.890;2024-03-06T15:23:12;14.80;99.90
41557;DHT22;27720;51.992;5.890;2024-03-06T15:25:38;14.70;99.90
41557;DHT22;27720;51.992;5.890;2024-03-06T15:28:04;14.60;99.90
41557;DHT22;27720;51.992;5.890;2024-03-06T15:30:30;14.60;99.90
41557;DHT22;27720;51.992;5.890;2024-03-06T15:32:57;14.60;99.90
41557;DHT22;27720;51.992;5.890;2024-03-06T15:35:23;14.60;99.90
41557;DHT22;27720;51.992;5.890;2024-03-06T15:37:49;14.50;99.90
41557;DHT22;27720;51.992;5.890;2024-03-06T15:40:15;14.50;99.90
41557;DHT22;27720;51.992;5.890;2024-03-06T15:42:41;14.40;99.90
41557;DHT22;27720;51.992;5.890;2024-03-06T15:45:10;14.40;99.90
41557;DHT22;27720;51.992;5.890;2024-03-06T15:47:36;14.30;99.90
41557;DHT22;27720;51.992;5.890;2024-03-06T15:50:04;14.20;99.90